Ismailia, Egypt
Current Conditions -  °F | °C
As of 9:00 PM on Friday 21 Nov 2014 (Local Time) from HEPS Reporting Station
Scattered Clouds Scattered Clouds  
Wind Chill: 68°   Ceiling: Unl
Heat Index: 68°   Visibility: 6mi
Dew Point: 57°   Wind: 12mph
Humidity: 68%   Direction: 290°WNW
Pressure: 30"   Gusts: NA
Location:  30.59°N, 32.26°E
Report Text: HEPS 211900Z 29010KT 9999 FEW025 SCT030 20/14 Q1016 NOSIG
Loading
Personal Weather Stations






























Interactive Weather Map New forecast layout! Learn more

10-Day Weather Forecast

Advertisements
Track Severe Weather on mobile